Time;durP1;ratioP1;P1;durP2;ratioP2;P2;SDS_P1;SDS_P2;PMS_P1;PMS_P2;Temp;Humidity;BMP_temperature;BMP_pressure;BME280_temperature;BME280_humidity;BME280_pressure;Samples;Min_cycle;Max_cycle;Signal;HPM_P1;HPM_P2
2022/08/01 00:00:24;;;;;;;;;;;;;;;;;;5034700;28;1856;-73
2022/08/01 00:02:49;;;;;;;;;;;;;;;;;;5048533;28;1814;-72
2022/08/01 00:05:15;;;;;;;;;;;;;;;;;;5057265;28;1409;-75
2022/08/01 00:07:40;;;;;;;;;;;;;;;;;;5057066;28;1967;-73
2022/08/01 00:10:10;;;;;;;;;;;;;;;;;;5061364;28;1759;-74
2022/08/01 00:12:35;;;;;;;;;;;;;;;;;;5060413;28;1892;-75
2022/08/01 00:15:00;;;;;;;;;;;;;;;;;;5059698;28;1655;-73
2022/08/01 00:17:25;;;;;;;;;;;;;;;;;;5050709;28;1841;-72
2022/08/01 00:19:50;;;;;;;;;;;;;;;;;;5050579;28;1518;-72
2022/08/01 00:22:16;;;;;;;;;;;;;;;;;;5055850;28;1499;-71
2022/08/01 00:24:41;;;;;;;;;;;;;;;;;;5052890;28;1593;-73
2022/08/01 00:27:06;;;;;;;;;;;;;;;;;;5049753;28;1898;-71
2022/08/01 00:29:31;;;;;;;;;;;;;;;;;;5056394;28;1203;-70
2022/08/01 00:31:56;;;;;;;;;;;;;;;;;;5051539;28;1566;-71
2022/08/01 00:34:22;;;;;;;;;;;;;;;;;;5060918;28;1632;-71
2022/08/01 00:36:47;;;;;;;;;;;;;;;;;;5055110;28;1744;-72
2022/08/01 00:39:12;;;;;;;;;;;;;;;;;;5059472;28;1642;-71
2022/08/01 00:41:37;;;;;;;;;;;;;;;;;;5060429;28;1575;-71
2022/08/01 00:44:05;;;;;;;;;;;;;;;;;;5060116;28;1128;-73
2022/08/01 00:46:31;;;;;;;;;;;;;;;;;;5051827;28;1894;-72
2022/08/01 00:48:57;;;;;;;;;;;;;;;;;;5052638;28;1561;-72
2022/08/01 00:51:22;;;;;;;;;;;;;;;;;;5057596;28;1503;-72
2022/08/01 00:53:47;;;;;;;;;;;;;;;;;;5051755;28;1476;-71
2022/08/01 00:56:13;;;;;;;;;;;;;;;;;;5057026;28;1507;-71
2022/08/01 00:58:38;;;;;;;;;;;;;;;;;;5056605;28;1472;-71
2022/08/01 01:01:03;;;;;;;;;;;;;;;;;;5051160;28;1583;-72
2022/08/01 01:03:28;;;;;;;;;;;;;;;;;;5059350;28;1900;-71
2022/08/01 01:06:00;;;;;;;;;;;;;;;;;;5058875;28;1496;-72
2022/08/01 01:08:31;;;;;;;;;;;;;;;;;;5051142;28;1914;-72
2022/08/01 01:11:23;;;;;;;;;;;;;;;;;;5054101;28;1510;-71
2022/08/01 01:14:01;;;;;;;;;;;;;;;;;;5051657;28;1526;-73
2022/08/01 01:16:26;;;;;;;;;;;;;;;;;;5047151;28;1437;-73
2022/08/01 01:18:57;;;;;;;;;;;;;;;;;;5054506;28;1507;-73
2022/08/01 01:21:26;;;;;;;;;;;;;;;;;;5056689;28;1483;-73
2022/08/01 01:24:04;;;;;;;;;;;;;;;;;;5052206;28;1575;-71
2022/08/01 01:26:36;;;;;;;;;;;;;;;;;;5060365;28;1894;-71
2022/08/01 01:29:15;;;;;;;;;;;;;;;;;;5064353;28;1573;-71
2022/08/01 01:32:03;;;;;;;;;;;;;;;;;;5052353;28;1535;-71
2022/08/01 01:34:30;;;;;;;;;;;;;;;;;;5049073;28;1657;-72
2022/08/01 01:36:56;;;;;;;;;;;;;;;;;;5060508;28;1670;-72
2022/08/01 01:39:23;;;;;;;;;;;;;;;;;;5062511;28;1428;-73
2022/08/01 01:41:49;;;;;;;;;;;;;;;;;;5052507;28;1512;-73
2022/08/01 01:44:15;;;;;;;;;;;;;;;;;;5059505;28;1247;-71
2022/08/01 01:46:40;;;;;;;;;;;;;;;;;;5054996;28;1910;-71
2022/08/01 01:49:09;;;;;;;;;;;;;;;;;;5056508;28;1494;-70
2022/08/01 01:51:35;;;;;;;;;;;;;;;;;;5054547;28;1511;-71
2022/08/01 01:54:01;;;;;;;;;;;;;;;;;;5054834;28;1638;-71
2022/08/01 01:56:27;;;;;;;;;;;;;;;;;;5055650;28;1378;-70
2022/08/01 01:58:54;;;;;;;;;;;;;;;;;;5056688;28;1860;-74
2022/08/01 02:01:21;;;;;;;;;;;;;;;;;;5050425;28;1844;-73
2022/08/01 02:03:48;;;;;;;;;;;;;;;;;;5043251;28;1653;-73
2022/08/01 02:06:14;;;;;;;;;;;;;;;;;;5055332;28;1653;-71
2022/08/01 02:08:40;;;;;;;;;;;;;;;;;;5051553;28;1971;-71
2022/08/01 02:11:18;;;;;;;;;;;;;;;;;;5053022;28;1511;-71
2022/08/01 02:13:43;;;;;;;;;;;;;;;;;;5054150;28;1522;-71
2022/08/01 02:16:10;;;;;;;;;;;;;;;;;;5048305;28;1893;-71
2022/08/01 02:18:36;;;;;;;;;;;;;;;;;;5056762;28;1550;-71
2022/08/01 02:21:03;;;;;;;;;;;;;;;;;;5055650;28;1554;-71
2022/08/01 02:23:31;;;;;;;;;;;;;;;;;;5057797;28;1907;-71
2022/08/01 02:25:57;;;;;;;;;;;;;;;;;;5053855;28;1519;-71
2022/08/01 02:28:28;;;;;;;;;;;;;;;;;;5054507;28;1957;-71
2022/08/01 02:30:54;;;;;;;;;;;;;;;;;;5050373;28;1571;-73
2022/08/01 02:33:20;;;;;;;;;;;;;;;;;;5051690;28;1903;-72
2022/08/01 02:35:48;;;;;;;;;;;;;;;;;;5054106;28;1915;-71
2022/08/01 02:38:14;;;;;;;;;;;;;;;;;;5056439;28;1686;-71
2022/08/01 02:40:41;;;;;;;;;;;;;;;;;;5055337;28;1781;-71
2022/08/01 02:43:08;;;;;;;;;;;;;;;;;;5047084;28;1471;-71
2022/08/01 02:45:35;;;;;;;;;;;;;;;;;;5055386;28;1523;-71
2022/08/01 02:48:07;;;;;;;;;;;;;;;;;;5053436;28;1898;-72
2022/08/01 02:50:34;;;;;;;;;;;;;;;;;;5060180;28;1563;-72
2022/08/01 02:52:59;;;;;;;;;;;;;;;;;;5059992;28;1567;-72
2022/08/01 02:55:25;;;;;;;;;;;;;;;;;;5060515;28;1582;-71
2022/08/01 02:57:51;;;;;;;;;;;;;;;;;;5059068;28;1483;-72
2022/08/01 03:00:17;;;;;;;;;;;;;;;;;;5054254;28;1786;-72
2022/08/01 03:02:43;;;;;;;;;;;;;;;;;;5045264;28;1753;-71
2022/08/01 03:05:09;;;;;;;;;;;;;;;;;;5056983;28;1567;-72
2022/08/01 03:07:35;;;;;;;;;;;;;;;;;;5054852;28;1902;-71
2022/08/01 03:10:01;;;;;;;;;;;;;;;;;;5056947;28;1632;-70
2022/08/01 03:12:29;;;;;;;;;;;;;;;;;;5056459;28;1875;-70
2022/08/01 03:14:56;;;;;;;;;;;;;;;;;;5058700;28;1510;-70
2022/08/01 03:17:23;;;;;;;;;;;;;;;;;;5042939;28;2046;-71
2022/08/01 03:19:49;;;;;;;;;;;;;;;;;;5062583;28;942;-71
2022/08/01 03:22:15;;;;;;;;;;;;;;;;;;5052585;28;1666;-72
2022/08/01 03:24:41;;;;;;;;;;;;;;;;;;5055804;28;1872;-71
2022/08/01 03:27:07;;;;;;;;;;;;;;;;;;5049393;28;1898;-71
2022/08/01 03:29:32;;;;;;;;;;;;;;;;;;5062736;28;1132;-71
2022/08/01 03:31:59;;;;;;;;;;;;;;;;;;5049882;28;1856;-73
2022/08/01 03:34:24;;;;;;;;;;;;;;;;;;5053723;28;1928;-73
2022/08/01 03:36:53;;;;;;;;;;;;;;;;;;5056745;28;1709;-71
2022/08/01 03:39:21;;;;;;;;;;;;;;;;;;5061787;28;1253;-73
2022/08/01 03:41:50;;;;;;;;;;;;;;;;;;5050131;28;1475;-71
2022/08/01 03:44:17;;;;;;;;;;;;;;;;;;5052281;28;1621;-71
2022/08/01 03:46:44;;;;;;;;;;;;;;;;;;5050572;28;1919;-71
2022/08/01 03:49:21;;;;;;;;;;;;;;;;;;5058053;28;1491;-71
2022/08/01 03:51:49;;;;;;;;;;;;;;;;;;5061799;28;1178;-70
2022/08/01 03:54:15;;;;;;;;;;;;;;;;;;5049178;28;1366;-70
2022/08/01 03:56:41;;;;;;;;;;;;;;;;;;5057035;28;1562;-70
2022/08/01 03:59:06;;;;;;;;;;;;;;;;;;5056451;28;1529;-70
2022/08/01 04:01:33;;;;;;;;;;;;;;;;;;5055453;28;1506;-70
2022/08/01 04:03:59;;;;;;;;;;;;;;;;;;5052184;28;1514;-70
2022/08/01 04:06:24;;;;;;;;;;;;;;;;;;5035148;28;1810;-70
2022/08/01 04:08:55;;;;;;;;;;;;;;;;;;5046847;28;1890;-70
2022/08/01 04:11:20;;;;;;;;;;;;;;;;;;5056844;28;1507;-70
2022/08/01 04:13:46;;;;;;;;;;;;;;;;;;5053214;28;1860;-71
2022/08/01 04:16:11;;;;;;;;;;;;;;;;;;5054510;28;1570;-72
2022/08/01 04:18:36;;;;;;;;;;;;;;;;;;5054525;28;1613;-72
2022/08/01 04:21:01;;;;;;;;;;;;;;;;;;5052849;28;1565;-72
2022/08/01 04:23:27;;;;;;;;;;;;;;;;;;5058020;28;1573;-73
2022/08/01 04:25:53;;;;;;;;;;;;;;;;;;5054620;28;1613;-73
2022/08/01 04:28:19;;;;;;;;;;;;;;;;;;5054537;28;1949;-73
2022/08/01 04:30:46;;;;;;;;;;;;;;;;;;5051588;28;1697;-73
2022/08/01 04:33:13;;;;;;;;;;;;;;;;;;5053367;28;1187;-71
2022/08/01 04:35:40;;;;;;;;;;;;;;;;;;5051817;28;1820;-72
2022/08/01 04:38:06;;;;;;;;;;;;;;;;;;5055206;28;1916;-71
2022/08/01 04:40:32;;;;;;;;;;;;;;;;;;5058497;28;1503;-71
2022/08/01 04:42:57;;;;;;;;;;;;;;;;;;5046731;28;1429;-72
2022/08/01 04:45:23;;;;;;;;;;;;;;;;;;5056452;28;1845;-72
2022/08/01 04:47:49;;;;;;;;;;;;;;;;;;5036404;28;1959;-72
2022/08/01 04:50:14;;;;;;;;;;;;;;;;;;5061638;28;1228;-71
2022/08/01 04:52:41;;;;;;;;;;;;;;;;;;5061048;28;1499;-71
2022/08/01 04:55:08;;;;;;;;;;;;;;;;;;5057752;28;1785;-72
2022/08/01 04:57:37;;;;;;;;;;;;;;;;;;5046410;28;1703;-71
2022/08/01 05:00:03;;;;;;;;;;;;;;;;;;5053406;28;1449;-70
2022/08/01 05:02:28;;;;;;;;;;;;;;;;;;5044849;28;1834;-69
2022/08/01 05:04:55;;;;;;;;;;;;;;;;;;5051740;28;1800;-70
2022/08/01 05:07:20;;;;;;;;;;;;;;;;;;5056345;28;1890;-69
2022/08/01 05:09:48;;;;;;;;;;;;;;;;;;5060758;28;914;-69
2022/08/01 05:12:13;;;;;;;;;;;;;;;;;;5061658;28;983;-69
2022/08/01 05:14:40;;;;;;;;;;;;;;;;;;5059289;28;1368;-70
2022/08/01 05:17:06;;;;;;;;;;;;;;;;;;5060430;28;1777;-70
2022/08/01 05:19:31;;;;;;;;;;;;;;;;;;5053497;28;1274;-69
2022/08/01 05:21:57;;;;;;;;;;;;;;;;;;5038964;28;1936;-70
2022/08/01 05:24:22;;;;;;;;;;;;;;;;;;5048823;28;1896;-70
2022/08/01 05:26:48;;;;;;;;;;;;;;;;;;5056487;28;1886;-70
2022/08/01 05:29:14;;;;;;;;;;;;;;;;;;5056772;28;1634;-70
2022/08/01 05:31:39;;;;;;;;;;;;;;;;;;5036118;28;1464;-70
2022/08/01 05:34:04;;;;;;;;;;;;;;;;;;5056442;28;1405;-69
2022/08/01 05:36:29;;;;;;;;;;;;;;;;;;5052738;28;1727;-70
2022/08/01 05:38:55;;;;;;;;;;;;;;;;;;5051322;28;1630;-70
2022/08/01 05:41:20;;;;;;;;;;;;;;;;;;5055915;28;1538;-70
2022/08/01 05:43:45;;;;;;;;;;;;;;;;;;5057570;28;1563;-70
2022/08/01 05:46:10;;;;;;;;;;;;;;;;;;5051265;28;1633;-70
2022/08/01 05:48:35;;;;;;;;;;;;;;;;;;5057430;28;1906;-70
2022/08/01 05:51:01;;;;;;;;;;;;;;;;;;5044165;28;1849;-70
2022/08/01 05:53:26;;;;;;;;;;;;;;;;;;5061066;28;1103;-70
2022/08/01 05:55:51;;;;;;;;;;;;;;;;;;5053094;28;1793;-70
2022/08/01 05:58:16;;;;;;;;;;;;;;;;;;5060295;28;1271;-70
2022/08/01 06:00:41;;;;;;;;;;;;;;;;;;5058773;28;1770;-70
2022/08/01 06:03:07;;;;;;;;;;;;;;;;;;5032874;28;1588;-70
2022/08/01 06:05:32;;;;;;;;;;;;;;;;;;5050343;28;1545;-70
2022/08/01 06:07:57;;;;;;;;;;;;;;;;;;5047899;28;1891;-70
2022/08/01 06:10:23;;;;;;;;;;;;;;;;;;5045708;28;1860;-70
2022/08/01 06:12:48;;;;;;;;;;;;;;;;;;5055967;28;1538;-70
2022/08/01 06:15:13;;;;;;;;;;;;;;;;;;5056901;28;1562;-70
2022/08/01 06:17:39;;;;;;;;;;;;;;;;;;5055772;28;1626;-70
2022/08/01 06:20:05;;;;;;;;;;;;;;;;;;5058987;28;1480;-70
2022/08/01 06:22:31;;;;;;;;;;;;;;;;;;5055395;28;1773;-70
2022/08/01 06:24:56;;;;;;;;;;;;;;;;;;5063816;28;1140;-70
2022/08/01 06:27:21;;;;;;;;;;;;;;;;;;5050775;28;1973;-70
2022/08/01 06:29:46;;;;;;;;;;;;;;;;;;5062115;28;1605;-70
2022/08/01 06:32:12;;;;;;;;;;;;;;;;;;5053755;28;1689;-70
2022/08/01 06:34:37;;;;;;;;;;;;;;;;;;5054420;28;1528;-71
2022/08/01 06:37:02;;;;;;;;;;;;;;;;;;5062091;28;1269;-70
2022/08/01 06:39:27;;;;;;;;;;;;;;;;;;5059533;28;1895;-70
2022/08/01 06:41:52;;;;;;;;;;;;;;;;;;5053440;28;1524;-70
2022/08/01 06:44:18;;;;;;;;;;;;;;;;;;5055818;28;1480;-71
2022/08/01 06:46:43;;;;;;;;;;;;;;;;;;5044334;28;1981;-71
2022/08/01 06:49:08;;;;;;;;;;;;;;;;;;5054707;28;1597;-73
2022/08/01 06:51:33;;;;;;;;;;;;;;;;;;5054539;28;1554;-73
2022/08/01 06:53:58;;;;;;;;;;;;;;;;;;5054837;28;1511;-73
2022/08/01 06:56:24;;;;;;;;;;;;;;;;;;5053235;28;1704;-73
2022/08/01 06:58:49;;;;;;;;;;;;;;;;;;5058906;28;1531;-73
2022/08/01 07:01:14;;;;;;;;;;;;;;;;;;5050473;28;1615;-73
2022/08/01 07:03:40;;;;;;;;;;;;;;;;;;5054871;28;1486;-73
2022/08/01 07:06:05;;;;;;;;;;;;;;;;;;5061729;28;1144;-73
2022/08/01 07:08:30;;;;;;;;;;;;;;;;;;5054325;28;1950;-72
2022/08/01 07:10:58;;;;;;;;;;;;;;;;;;5051173;28;1555;-71
2022/08/01 07:13:24;;;;;;;;;;;;;;;;;;5048658;28;1638;-72
2022/08/01 07:15:50;;;;;;;;;;;;;;;;;;5042931;28;1469;-72
2022/08/01 07:18:15;;;;;;;;;;;;;;;;;;5054664;28;1554;-73
2022/08/01 07:20:40;;;;;;;;;;;;;;;;;;5034833;28;1905;-73
2022/08/01 07:23:05;;;;;;;;;;;;;;;;;;5060547;28;1515;-78
2022/08/01 07:25:31;;;;;;;;;;;;;;;;;;5051768;28;1860;-73
2022/08/01 07:27:56;;;;;;;;;;;;;;;;;;5057645;28;1894;-73
2022/08/01 07:30:21;;;;;;;;;;;;;;;;;;5049408;28;1582;-75
2022/08/01 07:32:46;;;;;;;;;;;;;;;;;;5056320;28;1511;-76
2022/08/01 07:35:12;;;;;;;;;;;;;;;;;;5038905;28;1473;-71
2022/08/01 07:37:37;;;;;;;;;;;;;;;;;;5045682;28;1769;-75
2022/08/01 07:40:04;;;;;;;;;;;;;;;;;;5061530;28;1297;-74
2022/08/01 07:42:30;;;;;;;;;;;;;;;;;;5042817;28;1718;-73
2022/08/01 07:44:55;;;;;;;;;;;;;;;;;;5048831;28;1349;-73
2022/08/01 07:47:24;;;;;;;;;;;;;;;;;;5055015;28;1898;-73
2022/08/01 07:49:49;;;;;;;;;;;;;;;;;;5055978;28;1682;-73
2022/08/01 07:52:14;;;;;;;;;;;;;;;;;;5048843;28;1498;-72
2022/08/01 07:54:39;;;;;;;;;;;;;;;;;;5042471;28;858;-74
2022/08/01 07:57:05;;;;;;;;;;;;;;;;;;5056104;28;1559;-73
2022/08/01 07:59:30;;;;;;;;;;;;;;;;;;5056045;28;1455;-74
2022/08/01 08:01:55;;;;;;;;;;;;;;;;;;5054132;28;1344;-73
2022/08/01 08:04:20;;;;;;;;;;;;;;;;;;5050623;28;1544;-70
2022/08/01 08:06:47;;;;;;;;;;;;;;;;;;5030155;28;1898;-71
2022/08/01 08:09:12;;;;;;;;;;;;;;;;;;5056551;28;1356;-71
2022/08/01 08:11:37;;;;;;;;;;;;;;;;;;5058600;28;1203;-71
2022/08/01 08:14:02;;;;;;;;;;;;;;;;;;5053004;28;1467;-72
2022/08/01 08:16:28;;;;;;;;;;;;;;;;;;5049414;28;1536;-71
2022/08/01 08:18:53;;;;;;;;;;;;;;;;;;5056481;28;1493;-71
2022/08/01 08:21:18;;;;;;;;;;;;;;;;;;5057774;28;1515;-69
2022/08/01 08:26:28;;;;;;;;;;;;;;;;;;5058454;28;1312;-71
2022/08/01 08:28:53;;;;;;;;;;;;;;;;;;5053724;28;1973;-71
2022/08/01 08:31:18;;;;;;;;;;;;;;;;;;5051081;28;1349;-71
2022/08/01 08:33:43;;;;;;;;;;;;;;;;;;5046323;28;1333;-71
2022/08/01 08:36:10;;;;;;;;;;;;;;;;;;5045672;28;1554;-71
2022/08/01 08:38:36;;;;;;;;;;;;;;;;;;5053715;28;1239;-71
2022/08/01 08:41:01;;;;;;;;;;;;;;;;;;5048572;28;1373;-71
2022/08/01 08:43:26;;;;;;;;;;;;;;;;;;5049639;28;1243;-71
2022/08/01 08:45:52;;;;;;;;;;;;;;;;;;5046112;28;1238;-71
2022/08/01 08:48:17;;;;;;;;;;;;;;;;;;5053087;28;1898;-71
2022/08/01 08:50:43;;;;;;;;;;;;;;;;;;5053644;28;1227;-71
2022/08/01 08:53:09;;;;;;;;;;;;;;;;;;5053882;28;1215;-71
2022/08/01 08:55:35;;;;;;;;;;;;;;;;;;5048814;28;1865;-71
2022/08/01 08:58:02;;;;;;;;;;;;;;;;;;5046738;28;1360;-71
2022/08/01 09:00:27;;;;;;;;;;;;;;;;;;5046623;28;1211;-71
2022/08/01 09:02:55;;;;;;;;;;;;;;;;;;5029859;28;1290;-72
2022/08/01 09:05:25;;;;;;;;;;;;;;;;;;5047288;28;1258;-72
2022/08/01 09:07:50;;;;;;;;;;;;;;;;;;5046419;28;1957;-71
2022/08/01 09:10:15;;;;;;;;;;;;;;;;;;5047562;28;1164;-71
2022/08/01 09:13:00;;;;;;;;;;;;;;;;;;5047129;28;1149;-71
2022/08/01 09:15:37;;;;;;;;;;;;;;;;;;5049209;28;1389;-71
2022/08/01 09:18:02;;;;;;;;;;;;;;;;;;5053547;28;2240;-71
2022/08/01 09:20:28;;;;;;;;;;;;;;;;;;5051585;28;1496;-71
2022/08/01 09:22:53;;;;;;;;;;;;;;;;;;5058175;28;1605;-71
2022/08/01 09:25:18;;;;;;;;;;;;;;;;;;5081268;28;1051;-71
2022/08/01 09:27:43;;;;;;;;;;;;;;;;;;5068351;28;1894;-71
2022/08/01 09:30:10;;;;;;;;;;;;;;;;;;5061523;28;807;-71
2022/08/01 09:32:35;;;;;;;;;;;;;;;;;;5061217;28;842;-72
2022/08/01 09:35:22;;;;;;;;;;;;;;;;;;5065410;28;1292;-71
2022/08/01 09:37:47;;;;;;;;;;;;;;;;;;5050094;28;1519;-70
2022/08/01 09:40:12;;;;;;;;;;;;;;;;;;5043976;28;1539;-70
2022/08/01 09:42:37;;;;;;;;;;;;;;;;;;5061396;28;1155;-70
2022/08/01 09:45:02;;;;;;;;;;;;;;;;;;5060877;28;1037;-70
2022/08/01 09:47:37;;;;;;;;;;;;;;;;;;5060282;28;1965;-70
2022/08/01 09:50:03;;;;;;;;;;;;;;;;;;5057427;28;1530;-70
2022/08/01 09:52:28;;;;;;;;;;;;;;;;;;5060112;28;1499;-69
2022/08/01 09:54:55;;;;;;;;;;;;;;;;;;5051880;28;1362;-69
2022/08/01 09:57:20;;;;;;;;;;;;;;;;;;5042454;28;1196;-69
2022/08/01 09:59:47;;;;;;;;;;;;;;;;;;5044538;28;870;-70
2022/08/01 10:02:15;;;;;;;;;;;;;;;;;;5044274;28;1004;-70
2022/08/01 10:04:50;;;;;;;;;;;;;;;;;;5051504;28;1563;-70
2022/08/01 10:07:15;;;;;;;;;;;;;;;;;;5053335;28;1898;-69
2022/08/01 10:09:41;;;;;;;;;;;;;;;;;;5060812;28;1439;-69
2022/08/01 10:12:07;;;;;;;;;;;;;;;;;;5062731;28;1195;-69
2022/08/01 10:14:32;;;;;;;;;;;;;;;;;;5061063;28;1100;-69
2022/08/01 10:16:58;;;;;;;;;;;;;;;;;;5053496;28;1354;-68
2022/08/01 10:19:24;;;;;;;;;;;;;;;;;;5055788;28;1436;-69
2022/08/01 10:21:53;;;;;;;;;;;;;;;;;;5053920;28;1722;-70
2022/08/01 10:24:19;;;;;;;;;;;;;;;;;;5081347;28;869;-70
2022/08/01 10:26:47;;;;;;;;;;;;;;;;;;5055917;28;1662;-68
2022/08/01 10:29:13;;;;;;;;;;;;;;;;;;5051034;28;1897;-68
2022/08/01 10:31:38;;;;;;;;;;;;;;;;;;5057832;28;1280;-69
2022/08/01 10:34:04;;;;;;;;;;;;;;;;;;5053734;28;1578;-69
2022/08/01 10:36:29;;;;;;;;;;;;;;;;;;5061945;28;1645;-67
2022/08/01 10:38:55;;;;;;;;;;;;;;;;;;5048349;28;1566;-68
2022/08/01 10:41:20;;;;;;;;;;;;;;;;;;5055100;28;1485;-68
2022/08/01 10:43:46;;;;;;;;;;;;;;;;;;5051663;28;1645;-69
2022/08/01 10:46:11;;;;;;;;;;;;;;;;;;5044635;28;1293;-69
2022/08/01 10:48:44;;;;;;;;;;;;;;;;;;5052058;28;1968;-70
2022/08/01 10:51:09;;;;;;;;;;;;;;;;;;5044024;28;838;-70
2022/08/01 10:53:35;;;;;;;;;;;;;;;;;;5051155;28;1551;-68
2022/08/01 10:56:03;;;;;;;;;;;;;;;;;;5059913;28;1291;-69
2022/08/01 10:58:37;;;;;;;;;;;;;;;;;;5059057;28;1475;-71
2022/08/01 11:01:14;;;;;;;;;;;;;;;;;;5055448;28;1498;-68
2022/08/01 11:03:40;;;;;;;;;;;;;;;;;;5043736;28;1330;-68
2022/08/01 11:06:06;;;;;;;;;;;;;;;;;;5043244;28;1508;-68
2022/08/01 11:08:33;;;;;;;;;;;;;;;;;;5045282;28;1902;-68
2022/08/01 11:11:02;;;;;;;;;;;;;;;;;;5061771;28;1475;-67
2022/08/01 11:13:45;;;;;;;;;;;;;;;;;;5061411;28;1473;-67
2022/08/01 11:16:29;;;;;;;;;;;;;;;;;;5061196;28;1289;-67
2022/08/01 11:18:55;;;;;;;;;;;;;;;;;;5060618;28;1496;-68
2022/08/01 11:21:23;;;;;;;;;;;;;;;;;;5055363;28;1344;-66
2022/08/01 11:23:49;;;;;;;;;;;;;;;;;;5047604;28;1492;-65
2022/08/01 11:26:15;;;;;;;;;;;;;;;;;;5046689;28;1464;-66
2022/08/01 11:28:41;;;;;;;;;;;;;;;;;;5045683;28;1898;-66
2022/08/01 11:31:06;;;;;;;;;;;;;;;;;;5052213;28;1479;-65
2022/08/01 11:33:41;;;;;;;;;;;;;;;;;;5063437;28;1630;-67
2022/08/01 11:36:12;;;;;;;;;;;;;;;;;;5051669;28;1542;-67
2022/08/01 11:38:38;;;;;;;;;;;;;;;;;;5046118;28;1463;-68
2022/08/01 11:41:09;;;;;;;;;;;;;;;;;;5062286;28;1586;-68
2022/08/01 11:43:34;;;;;;;;;;;;;;;;;;5055667;28;1584;-66
2022/08/01 11:46:00;;;;;;;;;;;;;;;;;;5052543;28;1492;-66
2022/08/01 11:48:26;;;;;;;;;;;;;;;;;;5052523;28;1961;-65
2022/08/01 11:50:52;;;;;;;;;;;;;;;;;;5051654;28;1824;-66
2022/08/01 11:53:19;;;;;;;;;;;;;;;;;;5060215;28;1464;-66
2022/08/01 11:55:53;;;;;;;;;;;;;;;;;;5045823;28;1532;-66
2022/08/01 11:58:23;;;;;;;;;;;;;;;;;;5055897;28;1437;-66
2022/08/01 12:00:52;;;;;;;;;;;;;;;;;;5061778;28;1727;-66
2022/08/01 12:03:22;;;;;;;;;;;;;;;;;;5042435;28;1496;-66
2022/08/01 12:05:48;;;;;;;;;;;;;;;;;;5049472;28;1442;-66
2022/08/01 12:08:13;;;;;;;;;;;;;;;;;;5056331;28;1963;-65
2022/08/01 12:10:38;;;;;;;;;;;;;;;;;;5047658;28;1841;-66
2022/08/01 12:13:05;;;;;;;;;;;;;;;;;;5053405;28;1638;-66
2022/08/01 12:15:34;;;;;;;;;;;;;;;;;;5048676;28;1836;-66
2022/08/01 12:18:01;;;;;;;;;;;;;;;;;;5033027;28;1447;-66
2022/08/01 12:20:27;;;;;;;;;;;;;;;;;;5056698;28;1812;-65
2022/08/01 12:23:00;;;;;;;;;;;;;;;;;;5053693;28;1491;-66
2022/08/01 12:25:26;;;;;;;;;;;;;;;;;;5056798;28;1563;-66
2022/08/01 12:27:52;;;;;;;;;;;;;;;;;;5055465;28;1919;-67
2022/08/01 12:30:18;;;;;;;;;;;;;;;;;;5052398;28;1608;-66
2022/08/01 12:32:45;;;;;;;;;;;;;;;;;;5055031;28;1519;-66
2022/08/01 12:35:13;;;;;;;;;;;;;;;;;;5058274;28;1590;-67
2022/08/01 12:37:40;;;;;;;;;;;;;;;;;;5057161;28;1481;-65
2022/08/01 12:40:12;;;;;;;;;;;;;;;;;;5049594;28;1495;-66
2022/08/01 12:42:39;;;;;;;;;;;;;;;;;;5060769;28;1297;-66
2022/08/01 12:45:05;;;;;;;;;;;;;;;;;;5063731;28;1566;-65
2022/08/01 12:47:30;;;;;;;;;;;;;;;;;;5056782;28;1967;-66
2022/08/01 12:49:55;;;;;;;;;;;;;;;;;;5054047;28;1553;-67
2022/08/01 12:52:22;;;;;;;;;;;;;;;;;;5048983;28;1734;-66
2022/08/01 12:55:20;;;;;;;;;;;;;;;;;;5052180;28;1518;-66
2022/08/01 12:57:52;;;;;;;;;;;;;;;;;;5017429;28;1655;-66
2022/08/01 13:00:22;;;;;;;;;;;;;;;;;;5054601;28;1527;-66
2022/08/01 13:02:48;;;;;;;;;;;;;;;;;;5056202;28;1331;-67
2022/08/01 13:05:14;;;;;;;;;;;;;;;;;;5062259;28;1535;-67
2022/08/01 13:07:41;;;;;;;;;;;;;;;;;;5054916;28;1895;-66
2022/08/01 13:10:07;;;;;;;;;;;;;;;;;;5054620;28;1550;-67
2022/08/01 13:12:33;;;;;;;;;;;;;;;;;;5057625;28;1550;-67
2022/08/01 13:14:58;;;;;;;;;;;;;;;;;;5058247;28;1589;-67
2022/08/01 13:17:41;;;;;;;;;;;;;;;;;;5048241;28;1840;-67
2022/08/01 13:20:07;;;;;;;;;;;;;;;;;;5057205;28;1853;-67
2022/08/01 13:22:35;;;;;;;;;;;;;;;;;;5054160;28;1789;-66
2022/08/01 13:25:14;;;;;;;;;;;;;;;;;;5059043;28;1096;-67
2022/08/01 13:27:39;;;;;;;;;;;;;;;;;;5053666;28;1897;-67
2022/08/01 13:30:13;;;;;;;;;;;;;;;;;;5062356;28;1503;-65
2022/08/01 13:32:38;;;;;;;;;;;;;;;;;;5039795;28;1629;-68
2022/08/01 13:35:04;;;;;;;;;;;;;;;;;;5054429;28;1314;-66
2022/08/01 13:37:30;;;;;;;;;;;;;;;;;;5051350;28;1471;-66
2022/08/01 13:39:55;;;;;;;;;;;;;;;;;;5060364;28;1628;-66
2022/08/01 13:42:20;;;;;;;;;;;;;;;;;;5067777;28;1307;-66
2022/08/01 13:44:45;;;;;;;;;;;;;;;;;;5065569;28;1587;-66
2022/08/01 13:47:10;;;;;;;;;;;;;;;;;;5066219;28;1890;-66
2022/08/01 13:49:36;;;;;;;;;;;;;;;;;;5043176;28;946;-67
2022/08/01 13:52:01;;;;;;;;;;;;;;;;;;5059006;28;1482;-66
2022/08/01 13:54:27;;;;;;;;;;;;;;;;;;5058218;28;1020;-66
2022/08/01 13:56:52;;;;;;;;;;;;;;;;;;5060823;28;1270;-67
2022/08/01 13:59:18;;;;;;;;;;;;;;;;;;5050511;28;1356;-66
2022/08/01 14:01:43;;;;;;;;;;;;;;;;;;5058678;28;1210;-66
2022/08/01 14:04:08;;;;;;;;;;;;;;;;;;5041278;28;1718;-66
2022/08/01 14:06:34;;;;;;;;;;;;;;;;;;5047790;28;1447;-67
2022/08/01 14:09:00;;;;;;;;;;;;;;;;;;5059056;28;1951;-67
2022/08/01 14:11:25;;;;;;;;;;;;;;;;;;5045603;28;1246;-67
2022/08/01 14:13:50;;;;;;;;;;;;;;;;;;5067168;28;1462;-66
2022/08/01 14:16:16;;;;;;;;;;;;;;;;;;5080403;28;1278;-66
2022/08/01 14:18:41;;;;;;;;;;;;;;;;;;5064924;28;1139;-67
2022/08/01 14:21:06;;;;;;;;;;;;;;;;;;5040201;28;1383;-66
2022/08/01 14:23:32;;;;;;;;;;;;;;;;;;5050553;28;1220;-67
2022/08/01 14:25:57;;;;;;;;;;;;;;;;;;5060280;28;825;-67
2022/08/01 14:28:24;;;;;;;;;;;;;;;;;;5041122;28;1963;-66
2022/08/01 14:30:49;;;;;;;;;;;;;;;;;;5057034;28;1289;-66
2022/08/01 14:33:14;;;;;;;;;;;;;;;;;;5073620;28;1367;-66
2022/08/01 14:35:40;;;;;;;;;;;;;;;;;;5059384;28;1171;-66
2022/08/01 14:38:05;;;;;;;;;;;;;;;;;;5058234;28;1524;-66
2022/08/01 14:40:31;;;;;;;;;;;;;;;;;;5060344;28;885;-66
2022/08/01 14:42:56;;;;;;;;;;;;;;;;;;5060603;28;842;-66
2022/08/01 14:45:21;;;;;;;;;;;;;;;;;;5061346;28;1355;-66
2022/08/01 14:47:46;;;;;;;;;;;;;;;;;;5059260;28;1906;-66
2022/08/01 14:50:13;;;;;;;;;;;;;;;;;;5042402;28;807;-66
2022/08/01 14:52:38;;;;;;;;;;;;;;;;;;5057986;28;1447;-67
2022/08/01 14:55:04;;;;;;;;;;;;;;;;;;5063370;28;1199;-66
2022/08/01 14:57:30;;;;;;;;;;;;;;;;;;5045000;28;1294;-66
2022/08/01 14:59:55;;;;;;;;;;;;;;;;;;5060627;28;1352;-67
2022/08/01 15:02:21;;;;;;;;;;;;;;;;;;5062180;28;1249;-66
2022/08/01 15:04:46;;;;;;;;;;;;;;;;;;5063453;28;898;-66
2022/08/01 15:07:12;;;;;;;;;;;;;;;;;;5056485;28;1956;-66
2022/08/01 15:09:37;;;;;;;;;;;;;;;;;;5062541;28;1692;-66
2022/08/01 15:12:03;;;;;;;;;;;;;;;;;;5061322;28;1507;-66
2022/08/01 15:17:11;;;;;;;;;;;;;;;;;;5060105;28;1456;-66
2022/08/01 15:19:38;;;;;;;;;;;;;;;;;;5042699;28;1052;-66
2022/08/01 15:22:03;;;;;;;;;;;;;;;;;;5053254;28;1663;-66
2022/08/01 15:24:28;;;;;;;;;;;;;;;;;;5062552;28;1225;-66
2022/08/01 15:26:53;;;;;;;;;;;;;;;;;;5050985;28;1503;-66
2022/08/01 15:29:18;;;;;;;;;;;;;;;;;;5062447;28;1917;-66
2022/08/01 15:31:44;;;;;;;;;;;;;;;;;;5061319;28;1576;-66
2022/08/01 15:34:09;;;;;;;;;;;;;;;;;;5062542;28;810;-66
2022/08/01 15:36:34;;;;;;;;;;;;;;;;;;5059823;28;1320;-66
2022/08/01 15:38:59;;;;;;;;;;;;;;;;;;5062850;28;969;-66
2022/08/01 15:41:24;;;;;;;;;;;;;;;;;;5062624;28;828;-66
2022/08/01 15:43:50;;;;;;;;;;;;;;;;;;5061195;28;1527;-66
2022/08/01 15:46:15;;;;;;;;;;;;;;;;;;5061923;28;1362;-66
2022/08/01 15:48:40;;;;;;;;;;;;;;;;;;5037537;28;1901;-66
2022/08/01 15:51:05;;;;;;;;;;;;;;;;;;5048883;28;1444;-66
2022/08/01 15:53:30;;;;;;;;;;;;;;;;;;5056754;28;1017;-66
2022/08/01 15:55:56;;;;;;;;;;;;;;;;;;5062627;28;834;-67
2022/08/01 15:58:21;;;;;;;;;;;;;;;;;;5059575;28;1416;-66
2022/08/01 16:00:46;;;;;;;;;;;;;;;;;;5053584;28;1539;-66
2022/08/01 16:03:11;;;;;;;;;;;;;;;;;;5052931;28;1472;-66
2022/08/01 16:05:37;;;;;;;;;;;;;;;;;;5056007;28;1475;-66
2022/08/01 16:08:03;;;;;;;;;;;;;;;;;;5059257;28;1894;-66
2022/08/01 16:10:28;;;;;;;;;;;;;;;;;;5041506;28;1292;-66
2022/08/01 16:12:54;;;;;;;;;;;;;;;;;;5045108;28;1444;-67
2022/08/01 16:15:19;;;;;;;;;;;;;;;;;;5046031;28;1428;-67
2022/08/01 16:17:44;;;;;;;;;;;;;;;;;;5061621;28;1351;-67
2022/08/01 16:20:09;;;;;;;;;;;;;;;;;;5060479;28;1769;-67
2022/08/01 16:22:35;;;;;;;;;;;;;;;;;;5058617;28;1695;-67
2022/08/01 16:25:00;;;;;;;;;;;;;;;;;;5061614;28;1649;-67
2022/08/01 16:27:26;;;;;;;;;;;;;;;;;;5064731;28;1967;-66
2022/08/01 16:29:51;;;;;;;;;;;;;;;;;;5069733;28;1358;-68
2022/08/01 16:32:16;;;;;;;;;;;;;;;;;;5069897;28;1357;-66
2022/08/01 16:34:42;;;;;;;;;;;;;;;;;;5068794;28;1742;-66
2022/08/01 16:37:07;;;;;;;;;;;;;;;;;;5057534;28;1908;-66
2022/08/01 16:39:32;;;;;;;;;;;;;;;;;;5060962;28;1778;-67
2022/08/01 16:41:57;;;;;;;;;;;;;;;;;;5063060;28;1585;-66
2022/08/01 16:44:23;;;;;;;;;;;;;;;;;;5057888;28;1550;-67
2022/08/01 16:46:48;;;;;;;;;;;;;;;;;;5068756;28;1371;-67
2022/08/01 16:49:13;;;;;;;;;;;;;;;;;;5067217;28;1894;-67
2022/08/01 16:51:38;;;;;;;;;;;;;;;;;;5050938;28;1658;-67
2022/08/01 16:54:04;;;;;;;;;;;;;;;;;;5058156;28;1329;-67
2022/08/01 16:56:29;;;;;;;;;;;;;;;;;;5060294;28;1311;-67
2022/08/01 16:58:54;;;;;;;;;;;;;;;;;;5063456;28;1244;-67
2022/08/01 17:01:19;;;;;;;;;;;;;;;;;;5060844;28;1720;-67
2022/08/01 17:03:45;;;;;;;;;;;;;;;;;;5061699;28;1198;-67